sensor_id;sensor_type;location;lat;lon;timestamp;pressure;altitude;pressure_sealevel;temperature;humidity
36748;BME280;22716;51.556;5.080;2023-05-12T00:02:05;100938.69;;;13.74;100.00
36748;BME280;22716;51.556;5.080;2023-05-12T00:04:35;100937.88;;;13.72;100.00
36748;BME280;22716;51.556;5.080;2023-05-12T00:07:06;100949.41;;;13.66;100.00
36748;BME280;22716;51.556;5.080;2023-05-12T00:09:35;100946.88;;;13.62;100.00
36748;BME280;22716;51.556;5.080;2023-05-12T00:12:07;100946.03;;;13.61;100.00
36748;BME280;22716;51.556;5.080;2023-05-12T00:14:40;100945.25;;;13.56;100.00
36748;BME280;22716;51.556;5.080;2023-05-12T00:17:08;100947.03;;;13.54;100.00
36748;BME280;22716;51.556;5.080;2023-05-12T00:19:38;100917.47;;;13.41;100.00
36748;BME280;22716;51.556;5.080;2023-05-12T00:22:08;100931.56;;;13.39;100.00
36748;BME280;22716;51.556;5.080;2023-05-12T00:24:38;100940.25;;;13.42;100.00
36748;BME280;22716;51.556;5.080;2023-05-12T00:27:07;100941.13;;;13.43;100.00
36748;BME280;22716;51.556;5.080;2023-05-12T00:29:39;100935.13;;;13.36;100.00
36748;BME280;22716;51.556;5.080;2023-05-12T00:32:08;100925.63;;;13.29;100.00
36748;BME280;22716;51.556;5.080;2023-05-12T00:34:38;100920.50;;;13.22;100.00
36748;BME280;22716;51.556;5.080;2023-05-12T00:37:07;100917.06;;;13.20;100.00
36748;BME280;22716;51.556;5.080;2023-05-12T00:39:36;100931.72;;;13.31;100.00
36748;BME280;22716;51.556;5.080;2023-05-12T00:42:05;100928.38;;;13.23;100.00
36748;BME280;22716;51.556;5.080;2023-05-12T00:44:34;100933.59;;;13.25;100.00
36748;BME280;22716;51.556;5.080;2023-05-12T00:47:06;100936.28;;;13.23;100.00
36748;BME280;22716;51.556;5.080;2023-05-12T00:49:37;100910.25;;;13.07;100.00
36748;BME280;22716;51.556;5.080;2023-05-12T00:52:08;100931.88;;;13.24;100.00
36748;BME280;22716;51.556;5.080;2023-05-12T00:54:37;100923.25;;;13.17;100.00
36748;BME280;22716;51.556;5.080;2023-05-12T00:57:07;100927.63;;;13.17;100.00
36748;BME280;22716;51.556;5.080;2023-05-12T00:59:36;100929.44;;;13.15;100.00
36748;BME280;22716;51.556;5.080;2023-05-12T01:02:08;100927.69;;;13.14;100.00
36748;BME280;22716;51.556;5.080;2023-05-12T01:04:38;100929.56;;;13.09;100.00
36748;BME280;22716;51.556;5.080;2023-05-12T01:07:11;100929.56;;;13.09;100.00
36748;BME280;22716;51.556;5.080;2023-05-12T01:09:43;100919.16;;;13.00;100.00
36748;BME280;22716;51.556;5.080;2023-05-12T01:12:14;100914.78;;;13.00;100.00
36748;BME280;22716;51.556;5.080;2023-05-12T01:14:43;100915.63;;;13.01;100.00
36748;BME280;22716;51.556;5.080;2023-05-12T01:17:19;100915.66;;;12.99;100.00
36748;BME280;22716;51.556;5.080;2023-05-12T01:19:51;100913.91;;;12.98;100.00
36748;BME280;22716;51.556;5.080;2023-05-12T01:22:21;100911.28;;;12.98;100.00
36748;BME280;22716;51.556;5.080;2023-05-12T01:24:54;100916.56;;;12.98;100.00
36748;BME280;22716;51.556;5.080;2023-05-12T01:27:26;100900.94;;;12.90;100.00
36748;BME280;22716;51.556;5.080;2023-05-12T01:29:59;100912.28;;;12.92;100.00
36748;BME280;22716;51.556;5.080;2023-05-12T01:32:29;100914.91;;;12.92;100.00
36748;BME280;22716;51.556;5.080;2023-05-12T01:34:59;100915.00;;;12.88;100.00
36748;BME280;22716;51.556;5.080;2023-05-12T01:37:28;100894.13;;;12.79;100.00
36748;BME280;22716;51.556;5.080;2023-05-12T01:39:57;100910.81;;;12.78;100.00
36748;BME280;22716;51.556;5.080;2023-05-12T01:42:29;100916.94;;;12.77;100.00
36748;BME280;22716;51.556;5.080;2023-05-12T01:44:57;100907.34;;;12.74;100.00
36748;BME280;22716;51.556;5.080;2023-05-12T01:47:27;100910.84;;;12.76;100.00
36748;BME280;22716;51.556;5.080;2023-05-12T01:49:56;100902.09;;;12.74;100.00
36748;BME280;22716;51.556;5.080;2023-05-12T01:52:27;100893.50;;;12.66;100.00
36748;BME280;22716;51.556;5.080;2023-05-12T01:54:57;100901.38;;;12.66;100.00
36748;BME280;22716;51.556;5.080;2023-05-12T01:57:28;100902.25;;;12.65;100.00
36748;BME280;22716;51.556;5.080;2023-05-12T02:00:01;100905.84;;;12.61;100.00
36748;BME280;22716;51.556;5.080;2023-05-12T02:02:30;100900.63;;;12.60;100.00
36748;BME280;22716;51.556;5.080;2023-05-12T02:04:59;100899.69;;;12.64;100.00
36748;BME280;22716;51.556;5.080;2023-05-12T02:07:29;100895.34;;;12.61;100.00
36748;BME280;22716;51.556;5.080;2023-05-12T02:09:58;100890.16;;;12.58;100.00
36748;BME280;22716;51.556;5.080;2023-05-12T02:12:29;100890.16;;;12.58;100.00
36748;BME280;22716;51.556;5.080;2023-05-12T02:14:59;100894.56;;;12.56;100.00
36748;BME280;22716;51.556;5.080;2023-05-12T02:17:28;100894.56;;;12.56;100.00
36748;BME280;22716;51.556;5.080;2023-05-12T02:19:58;100891.00;;;12.59;100.00
36748;BME280;22716;51.556;5.080;2023-05-12T02:22:26;100882.22;;;12.60;100.00
36748;BME280;22716;51.556;5.080;2023-05-12T02:24:55;100877.00;;;12.57;100.00
36748;BME280;22716;51.556;5.080;2023-05-12T02:27:24;100881.38;;;12.58;100.00
36748;BME280;22716;51.556;5.080;2023-05-12T02:29:56;100873.59;;;12.52;100.00
36748;BME280;22716;51.556;5.080;2023-05-12T02:32:24;100871.84;;;12.52;100.00
36748;BME280;22716;51.556;5.080;2023-05-12T02:34:54;100873.59;;;12.52;100.00
36748;BME280;22716;51.556;5.080;2023-05-12T02:37:24;100863.19;;;12.46;100.00
36748;BME280;22716;51.556;5.080;2023-05-12T02:39:52;100865.81;;;12.47;100.00
36748;BME280;22716;51.556;5.080;2023-05-12T02:42:21;100864.13;;;12.43;100.00
36748;BME280;22716;51.556;5.080;2023-05-12T02:44:56;100867.56;;;12.47;100.00
36748;BME280;22716;51.556;5.080;2023-05-12T02:47:25;100851.81;;;12.45;100.00
36748;BME280;22716;51.556;5.080;2023-05-12T02:49:56;100863.97;;;12.52;100.00
36748;BME280;22716;51.556;5.080;2023-05-12T02:52:26;100856.13;;;12.49;100.00
36748;BME280;22716;51.556;5.080;2023-05-12T02:54:56;100846.50;;;12.48;100.00
36748;BME280;22716;51.556;5.080;2023-05-12T02:57:24;100843.94;;;12.45;100.00
36748;BME280;22716;51.556;5.080;2023-05-12T03:00:07;100834.34;;;12.44;100.00
36748;BME280;22716;51.556;5.080;2023-05-12T03:02:37;100849.19;;;12.47;100.00
36748;BME280;22716;51.556;5.080;2023-05-12T03:05:09;100849.13;;;12.48;100.00
36748;BME280;22716;51.556;5.080;2023-05-12T03:07:38;100836.91;;;12.47;100.00
36748;BME280;22716;51.556;5.080;2023-05-12T03:10:09;100843.88;;;12.50;100.00
36748;BME280;22716;51.556;5.080;2023-05-12T03:12:39;100836.09;;;12.42;100.00
36748;BME280;22716;51.556;5.080;2023-05-12T03:15:11;100842.88;;;12.55;100.00
36748;BME280;22716;51.556;5.080;2023-05-12T03:17:40;100838.50;;;12.56;100.00
36748;BME280;22716;51.556;5.080;2023-05-12T03:20:13;100834.13;;;12.56;100.00
36748;BME280;22716;51.556;5.080;2023-05-12T03:22:43;100834.13;;;12.56;100.00
36748;BME280;22716;51.556;5.080;2023-05-12T03:25:13;100829.59;;;12.63;100.00
36748;BME280;22716;51.556;5.080;2023-05-12T03:27:42;100832.28;;;12.60;100.00
36748;BME280;22716;51.556;5.080;2023-05-12T03:30:14;100826.19;;;12.59;100.00
36748;BME280;22716;51.556;5.080;2023-05-12T03:32:43;100826.19;;;12.59;100.00
36748;BME280;22716;51.556;5.080;2023-05-12T03:35:13;100821.69;;;12.64;100.00
36748;BME280;22716;51.556;5.080;2023-05-12T03:37:42;100828.81;;;12.59;100.00
36748;BME280;22716;51.556;5.080;2023-05-12T03:40:14;100814.03;;;12.51;100.00
36748;BME280;22716;51.556;5.080;2023-05-12T03:42:44;100789.84;;;12.35;100.00
36748;BME280;22716;51.556;5.080;2023-05-12T03:45:15;100812.34;;;12.48;100.00
36748;BME280;22716;51.556;5.080;2023-05-12T03:47:44;100800.97;;;12.48;100.00
36748;BME280;22716;51.556;5.080;2023-05-12T03:50:13;100808.78;;;12.52;100.00
36748;BME280;22716;51.556;5.080;2023-05-12T03:52:42;100815.84;;;12.49;100.00
36748;BME280;22716;51.556;5.080;2023-05-12T03:55:11;100819.41;;;12.46;100.00
36748;BME280;22716;51.556;5.080;2023-05-12T03:57:40;100817.59;;;12.50;100.00
36748;BME280;22716;51.556;5.080;2023-05-12T04:00:11;100819.34;;;12.49;100.00
36748;BME280;22716;51.556;5.080;2023-05-12T04:02:44;100816.66;;;12.52;100.00
36748;BME280;22716;51.556;5.080;2023-05-12T04:05:13;100806.16;;;12.51;100.00
36748;BME280;22716;51.556;5.080;2023-05-12T04:07:42;100806.09;;;12.55;100.00
36748;BME280;22716;51.556;5.080;2023-05-12T04:10:11;100813.16;;;12.53;100.00
36748;BME280;22716;51.556;5.080;2023-05-12T04:12:40;100815.72;;;12.55;100.00
36748;BME280;22716;51.556;5.080;2023-05-12T04:15:11;100813.16;;;12.53;100.00
36748;BME280;22716;51.556;5.080;2023-05-12T04:17:43;100807.03;;;12.51;100.00
36748;BME280;22716;51.556;5.080;2023-05-12T04:20:12;100816.66;;;12.51;100.00
36748;BME280;22716;51.556;5.080;2023-05-12T04:22:41;100814.09;;;12.49;100.00
36748;BME280;22716;51.556;5.080;2023-05-12T04:25:10;100811.47;;;12.49;100.00
36748;BME280;22716;51.556;5.080;2023-05-12T04:27:39;100796.78;;;12.38;100.00
36748;BME280;22716;51.556;5.080;2023-05-12T04:30:08;100809.00;;;12.40;100.00
36748;BME280;22716;51.556;5.080;2023-05-12T04:32:38;100812.56;;;12.36;100.00
36748;BME280;22716;51.556;5.080;2023-05-12T04:35:11;100804.69;;;12.38;100.00
36748;BME280;22716;51.556;5.080;2023-05-12T04:37:40;100813.44;;;12.36;100.00
36748;BME280;22716;51.556;5.080;2023-05-12T04:40:09;100806.44;;;12.37;100.00
36748;BME280;22716;51.556;5.080;2023-05-12T04:42:38;100808.13;;;12.41;100.00
36748;BME280;22716;51.556;5.080;2023-05-12T04:45:09;100811.78;;;12.32;100.00
36748;BME280;22716;51.556;5.080;2023-05-12T04:47:38;100816.88;;;12.40;100.00
36748;BME280;22716;51.556;5.080;2023-05-12T04:50:12;100795.03;;;12.36;100.00
36748;BME280;22716;51.556;5.080;2023-05-12T04:52:41;100808.94;;;12.43;100.00
36748;BME280;22716;51.556;5.080;2023-05-12T04:55:10;100817.66;;;12.47;100.00
36748;BME280;22716;51.556;5.080;2023-05-12T04:57:39;100819.34;;;12.49;100.00
36748;BME280;22716;51.556;5.080;2023-05-12T05:00:10;100812.38;;;12.47;100.00
36748;BME280;22716;51.556;5.080;2023-05-12T05:02:39;100812.41;;;12.45;100.00
36748;BME280;22716;51.556;5.080;2023-05-12T05:05:09;100815.13;;;12.39;100.00
36748;BME280;22716;51.556;5.080;2023-05-12T05:07:40;100819.47;;;12.43;100.00
36748;BME280;22716;51.556;5.080;2023-05-12T05:10:10;100829.13;;;12.41;100.00
36748;BME280;22716;51.556;5.080;2023-05-12T05:12:39;100833.59;;;12.36;100.00
36748;BME280;22716;51.556;5.080;2023-05-12T05:15:10;100830.91;;;12.39;100.00
36748;BME280;22716;51.556;5.080;2023-05-12T05:17:39;100831.78;;;12.40;100.00
36748;BME280;22716;51.556;5.080;2023-05-12T05:20:14;100803.19;;;12.23;100.00
36748;BME280;22716;51.556;5.080;2023-05-12T05:22:46;100831.75;;;12.41;100.00
36748;BME280;22716;51.556;5.080;2023-05-12T05:25:14;100830.84;;;12.44;100.00
36748;BME280;22716;51.556;5.080;2023-05-12T05:27:44;100833.59;;;12.36;100.00
36748;BME280;22716;51.556;5.080;2023-05-12T05:30:13;100834.44;;;12.38;100.00
36748;BME280;22716;51.556;5.080;2023-05-12T05:32:43;100832.66;;;12.40;100.00
36748;BME280;22716;51.556;5.080;2023-05-12T05:35:12;100836.09;;;12.42;100.00
36748;BME280;22716;51.556;5.080;2023-05-12T05:37:42;100843.06;;;12.45;100.00
36748;BME280;22716;51.556;5.080;2023-05-12T05:40:14;100834.44;;;12.38;100.00
36748;BME280;22716;51.556;5.080;2023-05-12T05:42:43;100830.84;;;12.42;100.00
36748;BME280;22716;51.556;5.080;2023-05-12T05:45:11;100831.66;;;12.46;100.00
36748;BME280;22716;51.556;5.080;2023-05-12T05:47:41;100833.34;;;12.50;100.00
36748;BME280;22716;51.556;5.080;2023-05-12T05:50:11;100842.06;;;12.52;100.00
36748;BME280;22716;51.556;5.080;2023-05-12T05:52:41;100839.44;;;12.53;100.00
36748;BME280;22716;51.556;5.080;2023-05-12T05:55:09;100842.06;;;12.53;100.00
36748;BME280;22716;51.556;5.080;2023-05-12T05:57:41;100838.44;;;12.59;100.00
36748;BME280;22716;51.556;5.080;2023-05-12T06:00:12;100843.72;;;12.57;100.00
36748;BME280;22716;51.556;5.080;2023-05-12T06:02:42;100845.41;;;12.61;100.00
36748;BME280;22716;51.556;5.080;2023-05-12T06:05:10;100854.94;;;12.65;100.00
36748;BME280;22716;51.556;5.080;2023-05-12T06:07:40;100854.00;;;12.69;100.00
36748;BME280;22716;51.556;5.080;2023-05-12T06:10:09;100856.63;;;12.71;100.00
36748;BME280;22716;51.556;5.080;2023-05-12T06:12:41;100854.88;;;12.68;100.00
36748;BME280;22716;51.556;5.080;2023-05-12T06:15:10;100861.78;;;12.75;100.00
36748;BME280;22716;51.556;5.080;2023-05-12T06:17:40;100863.47;;;12.79;100.00
36748;BME280;22716;51.556;5.080;2023-05-12T06:20:11;100851.22;;;12.77;100.00
36748;BME280;22716;51.556;5.080;2023-05-12T06:22:40;100880.03;;;12.83;100.00
36748;BME280;22716;51.556;5.080;2023-05-12T06:25:09;100879.13;;;12.85;100.00
36748;BME280;22716;51.556;5.080;2023-05-12T06:27:41;100876.44;;;12.88;100.00
36748;BME280;22716;51.556;5.080;2023-05-12T06:30:12;100874.53;;;12.97;100.00
36748;BME280;22716;51.556;5.080;2023-05-12T06:32:40;100871.78;;;13.01;100.00
36748;BME280;22716;51.556;5.080;2023-05-12T06:35:10;100880.41;;;13.11;100.00
36748;BME280;22716;51.556;5.080;2023-05-12T06:37:39;100880.47;;;13.08;100.00
36748;BME280;22716;51.556;5.080;2023-05-12T06:40:10;100884.66;;;13.16;100.00
36748;BME280;22716;51.556;5.080;2023-05-12T06:42:42;100876.63;;;13.24;100.00
36748;BME280;22716;51.556;5.080;2023-05-12T06:45:12;100876.47;;;13.30;100.00
36748;BME280;22716;51.556;5.080;2023-05-12T06:47:41;100874.50;;;13.41;100.00
36748;BME280;22716;51.556;5.080;2023-05-12T06:50:10;100883.91;;;13.51;100.00
36748;BME280;22716;51.556;5.080;2023-05-12T06:52:40;100887.38;;;13.55;100.00
36748;BME280;22716;51.556;5.080;2023-05-12T06:55:09;100895.00;;;13.65;100.00
36748;BME280;22716;51.556;5.080;2023-05-12T06:57:41;100897.63;;;13.67;100.00
36748;BME280;22716;51.556;5.080;2023-05-12T07:00:12;100898.56;;;13.64;100.00
36748;BME280;22716;51.556;5.080;2023-05-12T07:02:42;100899.38;;;13.68;100.00
36748;BME280;22716;51.556;5.080;2023-05-12T07:05:12;100900.94;;;13.75;100.00
36748;BME280;22716;51.556;5.080;2023-05-12T07:07:40;100912.22;;;13.81;100.00
36748;BME280;22716;51.556;5.080;2023-05-12T07:10:09;100903.19;;;13.91;100.00
36748;BME280;22716;51.556;5.080;2023-05-12T07:12:41;100904.56;;;14.08;100.00
36748;BME280;22716;51.556;5.080;2023-05-12T07:15:10;100905.22;;;14.17;100.00
36748;BME280;22716;51.556;5.080;2023-05-12T07:17:39;100905.09;;;14.22;100.00
36748;BME280;22716;51.556;5.080;2023-05-12T07:20:08;100918.06;;;14.31;100.00
36748;BME280;22716;51.556;5.080;2023-05-12T07:22:38;100914.41;;;14.38;100.00
36748;BME280;22716;51.556;5.080;2023-05-12T07:25:07;100915.81;;;14.51;100.00
36748;BME280;22716;51.556;5.080;2023-05-12T07:27:40;100918.97;;;14.65;100.00
36748;BME280;22716;51.556;5.080;2023-05-12T07:30:10;100915.34;;;14.69;100.00
36748;BME280;22716;51.556;5.080;2023-05-12T07:32:40;100877.72;;;14.63;100.00
36748;BME280;22716;51.556;5.080;2023-05-12T07:35:09;100922.06;;;14.82;100.00
36748;BME280;22716;51.556;5.080;2023-05-12T07:37:38;100927.25;;;14.85;100.00
36748;BME280;22716;51.556;5.080;2023-05-12T07:40:09;100909.53;;;14.90;100.00
36748;BME280;22716;51.556;5.080;2023-05-12T07:42:41;100917.91;;;15.04;100.00
36748;BME280;22716;51.556;5.080;2023-05-12T07:45:10;100926.56;;;15.09;100.00
36748;BME280;22716;51.556;5.080;2023-05-12T07:47:41;100906.31;;;15.10;100.00
36748;BME280;22716;51.556;5.080;2023-05-12T07:50:11;100927.13;;;15.21;100.00
36748;BME280;22716;51.556;5.080;2023-05-12T07:52:46;100921.03;;;15.19;100.00
36748;BME280;22716;51.556;5.080;2023-05-12T07:55:16;100918.22;;;15.25;100.00
36748;BME280;22716;51.556;5.080;2023-05-12T07:57:49;100927.56;;;15.36;100.00
36748;BME280;22716;51.556;5.080;2023-05-12T08:00:18;100939.63;;;15.45;100.00
36748;BME280;22716;51.556;5.080;2023-05-12T08:02:47;100930.03;;;15.42;100.00
36748;BME280;22716;51.556;5.080;2023-05-12T08:05:16;100938.78;;;15.44;100.00
36748;BME280;22716;51.556;5.080;2023-05-12T08:07:46;100936.19;;;15.43;100.00
36748;BME280;22716;51.556;5.080;2023-05-12T08:10:15;100951.88;;;15.49;100.00
36748;BME280;22716;51.556;5.080;2023-05-12T08:12:44;100952.19;;;15.67;100.00
36748;BME280;22716;51.556;5.080;2023-05-12T08:15:16;100952.31;;;15.94;100.00
36748;BME280;22716;51.556;5.080;2023-05-12T08:17:45;100951.19;;;16.01;100.00
36748;BME280;22716;51.556;5.080;2023-05-12T08:20:15;100946.88;;;15.98;100.00
36748;BME280;22716;51.556;5.080;2023-05-12T08:22:44;100951.78;;;16.10;100.00
36748;BME280;22716;51.556;5.080;2023-05-12T08:25:13;100963.16;;;16.12;100.00
36748;BME280;22716;51.556;5.080;2023-05-12T08:27:42;100959.09;;;16.02;100.00
36748;BME280;22716;51.556;5.080;2023-05-12T08:30:12;100973.81;;;16.09;100.00
36748;BME280;22716;51.556;5.080;2023-05-12T08:32:47;100959.09;;;16.02;100.00
36748;BME280;22716;51.556;5.080;2023-05-12T08:35:18;100967.56;;;16.12;100.00
36748;BME280;22716;51.556;5.080;2023-05-12T08:37:48;100978.44;;;16.31;100.00
36748;BME280;22716;51.556;5.080;2023-05-12T08:40:20;100970.06;;;16.44;100.00
36748;BME280;22716;51.556;5.080;2023-05-12T08:42:54;100971.13;;;16.39;100.00
36748;BME280;22716;51.556;5.080;2023-05-12T08:45:28;100974.72;;;16.38;100.00
36748;BME280;22716;51.556;5.080;2023-05-12T08:48:02;100968.34;;;16.43;100.00
36748;BME280;22716;51.556;5.080;2023-05-12T08:50:34;100983.28;;;16.44;100.00
36748;BME280;22716;51.556;5.080;2023-05-12T08:53:06;100986.88;;;16.43;100.00
36748;BME280;22716;51.556;5.080;2023-05-12T08:55:40;100986.09;;;16.40;100.00
36748;BME280;22716;51.556;5.080;2023-05-12T08:58:09;100986.00;;;16.43;100.00
36748;BME280;22716;51.556;5.080;2023-05-12T09:00:40;100984.03;;;16.49;100.00
36748;BME280;22716;51.556;5.080;2023-05-12T09:03:12;100983.97;;;16.51;100.00
36748;BME280;22716;51.556;5.080;2023-05-12T09:05:43;100981.28;;;16.52;100.00
36748;BME280;22716;51.556;5.080;2023-05-12T09:08:12;100991.78;;;16.55;100.00
36748;BME280;22716;51.556;5.080;2023-05-12T09:10:42;100993.00;;;16.71;100.00
36748;BME280;22716;51.556;5.080;2023-05-12T09:13:14;100995.53;;;16.76;100.00
36748;BME280;22716;51.556;5.080;2023-05-12T09:15:46;100998.31;;;16.71;100.00
36748;BME280;22716;51.556;5.080;2023-05-12T09:18:19;100988.47;;;16.75;100.00
36748;BME280;22716;51.556;5.080;2023-05-12T09:20:49;101000.56;;;16.82;100.00
36748;BME280;22716;51.556;5.080;2023-05-12T09:23:20;100984.75;;;16.80;100.00
36748;BME280;22716;51.556;5.080;2023-05-12T09:25:57;101000.44;;;16.87;100.00
36748;BME280;22716;51.556;5.080;2023-05-12T09:28:35;100990.00;;;16.82;100.00
36748;BME280;22716;51.556;5.080;2023-05-12T09:31:16;100996.63;;;16.95;100.00
36748;BME280;22716;51.556;5.080;2023-05-12T09:33:49;100997.31;;;17.00;100.00
36748;BME280;22716;51.556;5.080;2023-05-12T09:36:19;100987.56;;;17.02;100.00
36748;BME280;22716;51.556;5.080;2023-05-12T09:38:57;100999.31;;;17.18;100.00
36748;BME280;22716;51.556;5.080;2023-05-12T09:41:30;100994.03;;;17.18;100.00
36748;BME280;22716;51.556;5.080;2023-05-12T09:43:59;100995.13;;;17.38;100.00
36748;BME280;22716;51.556;5.080;2023-05-12T09:46:28;101009.72;;;17.49;100.00
36748;BME280;22716;51.556;5.080;2023-05-12T09:49:00;101010.53;;;17.50;100.00
36748;BME280;22716;51.556;5.080;2023-05-12T09:51:30;101005.25;;;17.50;100.00
36748;BME280;22716;51.556;5.080;2023-05-12T09:53:59;101001.75;;;17.49;100.00
36748;BME280;22716;51.556;5.080;2023-05-12T09:56:30;101008.53;;;17.58;100.00
36748;BME280;22716;51.556;5.080;2023-05-12T09:59:03;101008.53;;;17.58;100.00
36748;BME280;22716;51.556;5.080;2023-05-12T10:01:34;101006.00;;;17.55;100.00
36748;BME280;22716;51.556;5.080;2023-05-12T10:04:06;101001.50;;;17.57;100.00
36748;BME280;22716;51.556;5.080;2023-05-12T10:06:40;101008.31;;;17.64;100.00
36748;BME280;22716;51.556;5.080;2023-05-12T10:09:18;101012.63;;;17.66;100.00
36748;BME280;22716;51.556;5.080;2023-05-12T10:11:50;101010.03;;;17.65;100.00
36748;BME280;22716;51.556;5.080;2023-05-12T10:14:21;101009.81;;;17.71;100.00
36748;BME280;22716;51.556;5.080;2023-05-12T10:16:51;101010.22;;;17.83;100.00
36748;BME280;22716;51.556;5.080;2023-05-12T10:19:24;101007.00;;;17.99;100.00
36748;BME280;22716;51.556;5.080;2023-05-12T10:21:55;101009.66;;;17.99;100.00
36748;BME280;22716;51.556;5.080;2023-05-12T10:24:25;101009.66;;;17.99;100.00
36748;BME280;22716;51.556;5.080;2023-05-12T10:26:55;101016.66;;;18.00;100.00
36748;BME280;22716;51.556;5.080;2023-05-12T10:29:25;101010.16;;;18.08;100.00
36748;BME280;22716;51.556;5.080;2023-05-12T10:31:56;101016.06;;;18.15;100.00
36748;BME280;22716;51.556;5.080;2023-05-12T10:34:32;101012.75;;;18.10;100.00
36748;BME280;22716;51.556;5.080;2023-05-12T10:37:04;101006.66;;;18.08;100.00
36748;BME280;22716;51.556;5.080;2023-05-12T10:39:36;101008.66;;;18.01;100.00
36748;BME280;22716;51.556;5.080;2023-05-12T10:42:07;101000.72;;;18.01;100.00
36748;BME280;22716;51.556;5.080;2023-05-12T10:44:48;101018.25;;;18.05;100.00
36748;BME280;22716;51.556;5.080;2023-05-12T10:47:17;101024.34;;;18.07;100.00
36748;BME280;22716;51.556;5.080;2023-05-12T10:49:54;101020.28;;;18.20;100.00
36748;BME280;22716;51.556;5.080;2023-05-12T10:52:24;101017.38;;;18.26;100.00
36748;BME280;22716;51.556;5.080;2023-05-12T10:54:59;101019.00;;;18.30;100.00
36748;BME280;22716;51.556;5.080;2023-05-12T10:57:30;101015.13;;;18.39;100.00
36748;BME280;22716;51.556;5.080;2023-05-12T11:00:00;101024.16;;;18.57;100.00
36748;BME280;22716;51.556;5.080;2023-05-12T11:02:29;101010.78;;;18.60;99.47
36748;BME280;22716;51.556;5.080;2023-05-12T11:05:03;101014.41;;;18.57;99.32
36748;BME280;22716;51.556;5.080;2023-05-12T11:07:33;101016.88;;;18.62;99.06
36748;BME280;22716;51.556;5.080;2023-05-12T11:10:03;101019.53;;;18.62;98.88
36748;BME280;22716;51.556;5.080;2023-05-12T11:12:33;101024.97;;;18.59;97.77
36748;BME280;22716;51.556;5.080;2023-05-12T11:15:06;101031.81;;;18.64;97.09
36748;BME280;22716;51.556;5.080;2023-05-12T11:17:37;101033.84;;;18.79;96.93
36748;BME280;22716;51.556;5.080;2023-05-12T11:20:21;101034.19;;;18.92;95.26
36748;BME280;22716;51.556;5.080;2023-05-12T11:22:51;101037.53;;;18.97;94.97
36748;BME280;22716;51.556;5.080;2023-05-12T11:25:21;101043.03;;;18.92;94.68
36748;BME280;22716;51.556;5.080;2023-05-12T11:28:09;101032.03;;;18.80;94.80
36748;BME280;22716;51.556;5.080;2023-05-12T11:30:48;101050.97;;;18.72;94.95
36748;BME280;22716;51.556;5.080;2023-05-12T11:33:21;101051.56;;;18.57;96.44
36748;BME280;22716;51.556;5.080;2023-05-12T11:35:52;101042.97;;;18.51;96.95
36748;BME280;22716;51.556;5.080;2023-05-12T11:38:21;101027.63;;;18.35;97.36
36748;BME280;22716;51.556;5.080;2023-05-12T11:40:53;101057.53;;;18.40;97.37
36748;BME280;22716;51.556;5.080;2023-05-12T11:43:21;101048.97;;;18.32;97.62
36748;BME280;22716;51.556;5.080;2023-05-12T11:45:50;101061.56;;;18.27;97.80
36748;BME280;22716;51.556;5.080;2023-05-12T11:48:20;101064.09;;;18.30;97.56
36748;BME280;22716;51.556;5.080;2023-05-12T11:50:52;101057.53;;;18.40;96.82
36748;BME280;22716;51.556;5.080;2023-05-12T11:53:21;101066.88;;;18.72;96.50
36748;BME280;22716;51.556;5.080;2023-05-12T11:55:51;101063.94;;;19.00;95.24
36748;BME280;22716;51.556;5.080;2023-05-12T11:58:24;101068.00;;;19.09;94.77
36748;BME280;22716;51.556;5.080;2023-05-12T12:00:56;101069.75;;;19.10;93.99
36748;BME280;22716;51.556;5.080;2023-05-12T12:03:44;101073.81;;;18.96;93.69
36748;BME280;22716;51.556;5.080;2023-05-12T12:06:16;101070.94;;;18.81;92.94
36748;BME280;22716;51.556;5.080;2023-05-12T12:08:50;101080.44;;;18.86;92.80
36748;BME280;22716;51.556;5.080;2023-05-12T12:11:20;101084.53;;;18.95;92.68
36748;BME280;22716;51.556;5.080;2023-05-12T12:13:53;101079.72;;;19.05;91.90
36748;BME280;22716;51.556;5.080;2023-05-12T12:16:24;101070.94;;;19.23;91.05
36748;BME280;22716;51.556;5.080;2023-05-12T12:18:53;101082.91;;;19.33;90.67
36748;BME280;22716;51.556;5.080;2023-05-12T12:21:25;101096.38;;;19.50;90.10
36748;BME280;22716;51.556;5.080;2023-05-12T12:23:54;101101.03;;;19.65;88.61
36748;BME280;22716;51.556;5.080;2023-05-12T12:26:24;101099.44;;;19.81;87.52
36748;BME280;22716;51.556;5.080;2023-05-12T12:28:53;101103.34;;;19.93;87.01
36748;BME280;22716;51.556;5.080;2023-05-12T12:31:23;101093.69;;;19.90;87.27
36748;BME280;22716;51.556;5.080;2023-05-12T12:33:52;101100.28;;;20.02;87.17
36748;BME280;22716;51.556;5.080;2023-05-12T12:36:24;101112.69;;;20.01;86.75
36748;BME280;22716;51.556;5.080;2023-05-12T12:39:03;101117.16;;;20.01;86.77
36748;BME280;22716;51.556;5.080;2023-05-12T12:41:33;101109.03;;;20.04;86.13
36748;BME280;22716;51.556;5.080;2023-05-12T12:44:02;101118.16;;;20.17;85.07
36748;BME280;22716;51.556;5.080;2023-05-12T12:46:31;101110.63;;;20.28;84.22
36748;BME280;22716;51.556;5.080;2023-05-12T12:49:01;101110.47;;;20.31;83.16
36748;BME280;22716;51.556;5.080;2023-05-12T12:51:33;101106.28;;;20.44;82.87
36748;BME280;22716;51.556;5.080;2023-05-12T12:54:03;101127.78;;;20.58;82.50
36748;BME280;22716;51.556;5.080;2023-05-12T12:56:33;101127.84;;;20.76;82.19
36748;BME280;22716;51.556;5.080;2023-05-12T12:59:03;101132.06;;;20.62;82.79